Time;durP1;ratioP1;P1;durP2;ratioP2;P2;SDS_P1;SDS_P2;PMS_P1;PMS_P2;Temp;Humidity;BMP_temperature;BMP_pressure;BME280_temperature;BME280_humidity;BME280_pressure;Samples;Min_cycle;Max_cycle;Signal;HPM_P1;HPM_P2
2022/04/13 00:02:08;;;;;;;2.42;0.90;;;14.40;1.00;;;;;;5117243;28;20466;-58
2022/04/13 00:04:35;;;;;;;1.65;0.85;;;14.30;1.00;;;;;;5116636;28;20687;-57
2022/04/13 00:07:02;;;;;;;1.75;1.00;;;14.40;1.00;;;;;;5116997;28;20761;-58
2022/04/13 00:09:31;;;;;;;1.70;0.90;;;14.30;15.50;;;;;;5116992;28;20466;-58
2022/04/13 00:11:59;;;;;;;2.75;0.80;;;14.40;1.00;;;;;;5116991;28;20883;-58
2022/04/13 00:14:26;;;;;;;1.30;0.80;;;14.40;1.00;;;;;;5116932;28;20510;-58
2022/04/13 00:16:54;;;;;;;2.80;0.90;;;14.30;1.00;;;;;;5116948;28;20455;-57
2022/04/13 00:19:21;;;;;;;1.60;0.90;;;14.30;16.50;;;;;;5116772;28;20447;-58
2022/04/13 00:21:48;;;;;;;1.45;0.85;;;14.20;89.00;;;;;;5116478;28;20423;-58
2022/04/13 00:24:15;;;;;;;1.60;1.00;;;14.20;96.40;;;;;;5116533;28;20459;-58
2022/04/13 00:26:43;;;;;;;1.90;0.90;;;14.20;99.90;;;;;;5117123;28;20522;-58
2022/04/13 00:29:10;;;;;;;1.85;0.90;;;14.20;99.90;;;;;;5116604;28;20416;-58
2022/04/13 00:31:37;;;;;;;1.25;0.90;;;14.10;99.90;;;;;;5116557;28;20428;-58
2022/04/13 00:34:04;;;;;;;2.20;0.90;;;14.10;99.90;;;;;;5116060;28;20478;-57
2022/04/13 00:36:32;;;;;;;1.33;0.85;;;14.10;99.90;;;;;;5115560;28;20544;-56
2022/04/13 00:38:59;;;;;;;1.50;0.80;;;14.00;99.90;;;;;;5116699;28;20828;-57
2022/04/13 00:41:25;;;;;;;2.33;0.90;;;14.00;99.90;;;;;;5116138;28;20911;-58
2022/04/13 00:44:07;;;;;;;2.40;0.90;;;14.00;99.90;;;;;;5114717;28;20511;-56
2022/04/13 00:46:35;;;;;;;1.50;0.85;;;14.00;1.00;;;;;;5115006;28;20601;-58
2022/04/13 00:49:02;;;;;;;2.10;0.90;;;14.00;1.00;;;;;;5115775;28;20728;-58
2022/04/13 00:51:30;;;;;;;1.48;0.75;;;14.00;1.00;;;;;;5116140;28;20424;-58
2022/04/13 00:53:57;;;;;;;2.10;0.90;;;13.90;1.00;;;;;;5116567;28;20502;-57
2022/04/13 00:56:27;;;;;;;1.77;0.80;;;13.80;1.00;;;;;;5116234;28;20444;-58
2022/04/13 00:58:56;;;;;;;1.20;0.90;;;13.80;99.90;;;;;;5115661;28;20485;-58
2022/04/13 01:01:26;;;;;;;1.40;0.90;;;13.80;99.90;;;;;;5115912;28;20463;-58
2022/04/13 01:03:54;;;;;;;2.05;0.90;;;13.70;99.90;;;;;;5116184;28;20856;-56
2022/04/13 01:06:21;;;;;;;1.70;0.90;;;13.70;99.90;;;;;;5115094;28;20527;-58
2022/04/13 01:08:50;;;;;;;1.90;0.90;;;13.70;99.90;;;;;;5115586;28;20422;-58
2022/04/13 01:11:17;;;;;;;1.73;0.80;;;13.70;99.90;;;;;;5115597;28;20915;-57
2022/04/13 01:13:45;;;;;;;2.63;1.00;;;13.70;5.40;;;;;;5115833;28;20794;-57
2022/04/13 01:16:12;;;;;;;1.20;0.90;;;13.70;1.00;;;;;;5115851;28;20899;-58
2022/04/13 01:18:40;;;;;;;1.30;0.90;;;13.60;99.90;;;;;;5115749;28;20787;-57
2022/04/13 01:21:12;;;;;;;1.63;0.70;;;13.60;99.90;;;;;;5116096;28;20519;-57
2022/04/13 01:23:41;;;;;;;1.73;0.80;;;13.50;99.90;;;;;;5115502;28;20819;-58
2022/04/13 01:26:10;;;;;;;5.25;0.80;;;13.50;99.90;;;;;;5115025;28;20511;-58
2022/04/13 01:28:37;;;;;;;1.30;0.80;;;13.50;99.90;;;;;;5114077;28;20415;-57
2022/04/13 01:31:04;;;;;;;1.00;0.70;;;13.50;99.90;;;;;;5114802;28;20447;-58
2022/04/13 01:33:32;;;;;;;1.50;0.80;;;13.40;99.90;;;;;;5115920;28;20485;-57
2022/04/13 01:36:01;;;;;;;1.20;0.80;;;13.40;1.00;;;;;;5115728;28;20485;-58
2022/04/13 01:38:28;;;;;;;1.30;0.70;;;13.30;42.70;;;;;;5114755;28;20459;-55
2022/04/13 01:40:57;;;;;;;1.00;0.80;;;13.30;99.90;;;;;;5115586;28;20427;-57
2022/04/13 01:43:24;;;;;;;1.67;0.80;;;13.20;99.90;;;;;;5115109;28;20512;-57
2022/04/13 01:45:51;;;;;;;1.40;0.90;;;13.20;99.90;;;;;;5115184;28;20804;-58
2022/04/13 01:48:19;;;;;;;1.50;0.80;;;13.10;99.90;;;;;;5115323;28;20939;-57
2022/04/13 01:50:46;;;;;;;3.90;1.35;;;13.10;99.90;;;;;;5114837;28;20456;-57
2022/04/13 01:53:13;;;;;;;1.30;0.80;;;13.10;1.00;;;;;;5115441;28;20412;-57
2022/04/13 01:55:39;;;;;;;2.00;0.95;;;13.10;99.90;;;;;;5115226;28;20439;-58
2022/04/13 01:58:08;;;;;;;1.50;0.80;;;13.10;99.90;;;;;;5115408;28;20495;-58
2022/04/13 02:00:36;;;;;;;1.80;0.80;;;13.10;31.90;;;;;;5115576;28;20503;-58
2022/04/13 02:03:03;;;;;;;2.30;0.80;;;13.20;1.00;;;;;;5115300;28;20731;-57
2022/04/13 02:05:30;;;;;;;1.80;0.80;;;13.10;99.90;;;;;;5113910;28;20429;-58
2022/04/13 02:07:57;;;;;;;1.60;0.80;;;13.20;9.60;;;;;;5114167;28;20527;-58
2022/04/13 02:10:24;;;;;;;1.60;0.80;;;13.10;99.90;;;;;;5115054;28;20473;-57
2022/04/13 02:12:51;;;;;;;1.90;0.70;;;13.10;99.90;;;;;;5115343;28;20803;-56
2022/04/13 02:15:20;;;;;;;1.40;0.80;;;13.10;1.00;;;;;;5114993;28;20423;-58
2022/04/13 02:17:47;;;;;;;1.00;0.70;;;13.10;99.90;;;;;;5114195;28;20562;-58
2022/04/13 02:20:14;;;;;;;1.50;0.90;;;13.00;99.90;;;;;;5113795;28;20492;-57
2022/04/13 02:22:41;;;;;;;1.20;0.80;;;13.10;99.90;;;;;;5116386;28;20564;-57
2022/04/13 02:25:09;;;;;;;1.10;0.87;;;13.00;99.90;;;;;;5118251;28;20459;-57
2022/04/13 02:27:36;;;;;;;1.30;0.80;;;13.00;1.00;;;;;;5118799;28;20526;-56
2022/04/13 02:30:03;;;;;;;1.67;0.95;;;13.00;1.00;;;;;;5118102;28;20469;-57
2022/04/13 02:32:31;;;;;;;1.60;0.90;;;13.00;1.00;;;;;;5117857;28;20477;-55
2022/04/13 02:34:58;;;;;;;1.73;1.00;;;12.90;1.00;;;;;;5119461;28;20486;-57
2022/04/13 02:37:25;;;;;;;1.48;1.00;;;12.80;1.00;;;;;;5118667;28;20423;-57
2022/04/13 02:39:52;;;;;;;1.20;0.85;;;12.80;1.00;;;;;;5118860;28;20463;-57
2022/04/13 02:42:19;;;;;;;1.40;0.80;;;12.80;1.00;;;;;;5119250;28;20466;-57
2022/04/13 02:44:45;;;;;;;1.02;0.80;;;12.90;56.40;;;;;;5118837;28;20804;-57
2022/04/13 02:47:12;;;;;;;1.40;0.90;;;12.90;1.00;;;;;;5117652;28;20519;-56
2022/04/13 02:49:41;;;;;;;1.70;0.80;;;12.80;1.00;;;;;;5117575;28;20764;-57
2022/04/13 02:52:08;;;;;;;2.40;0.90;;;12.80;1.00;;;;;;5118701;28;20570;-57
2022/04/13 02:54:35;;;;;;;2.30;0.90;;;12.80;1.00;;;;;;5118501;28;20503;-57
2022/04/13 02:57:02;;;;;;;1.50;0.80;;;12.70;1.00;;;;;;5118673;28;20515;-56
2022/04/13 02:59:30;;;;;;;1.30;0.70;;;12.70;1.00;;;;;;5118110;28;20420;-55
2022/04/13 03:01:56;;;;;;;3.50;0.90;;;12.70;1.00;;;;;;5117551;28;21020;-57
2022/04/13 03:04:23;;;;;;;2.90;0.80;;;12.70;1.00;;;;;;5118459;28;20626;-57
2022/04/13 03:06:52;;;;;;;2.00;0.80;;;12.70;1.00;;;;;;5118335;28;20530;-58
2022/04/13 03:09:18;;;;;;;2.20;0.80;;;12.60;83.00;;;;;;5118080;28;20412;-58
2022/04/13 03:11:45;;;;;;;2.22;0.70;;;12.50;99.90;;;;;;5118119;28;20478;-57
2022/04/13 03:14:12;;;;;;;1.35;0.80;;;12.50;1.00;;;;;;5118359;28;20459;-57
2022/04/13 03:16:39;;;;;;;1.70;0.90;;;12.50;1.00;;;;;;5118271;28;20907;-57
2022/04/13 03:19:06;;;;;;;1.60;0.80;;;12.40;1.00;;;;;;5117944;28;20499;-57
2022/04/13 03:21:33;;;;;;;1.40;0.87;;;12.40;1.00;;;;;;5117816;28;20431;-57
2022/04/13 03:24:01;;;;;;;1.40;0.70;;;12.40;1.00;;;;;;5117900;28;20492;-57
2022/04/13 03:26:28;;;;;;;1.17;0.80;;;12.30;1.00;;;;;;5117844;28;20515;-57
2022/04/13 03:28:55;;;;;;;1.88;0.80;;;12.30;1.00;;;;;;5117403;28;20499;-57
2022/04/13 03:31:22;;;;;;;1.33;0.90;;;12.30;1.00;;;;;;5117792;28;20783;-57
2022/04/13 03:33:49;;;;;;;1.10;0.80;;;12.30;1.00;;;;;;5117869;28;20412;-56
2022/04/13 03:36:18;;;;;;;1.20;0.80;;;12.20;1.00;;;;;;5117833;28;20430;-56
2022/04/13 03:38:45;;;;;;;1.92;0.90;;;12.30;1.00;;;;;;5117782;28;20431;-58
2022/04/13 03:41:13;;;;;;;1.33;0.90;;;12.20;99.90;;;;;;5117522;28;20528;-58
2022/04/13 03:43:40;;;;;;;1.00;0.80;;;12.20;99.90;;;;;;5117982;28;20495;-57
2022/04/13 03:46:07;;;;;;;1.30;0.90;;;12.30;99.90;;;;;;5117182;28;20511;-57
2022/04/13 03:48:34;;;;;;;2.42;0.90;;;12.20;99.90;;;;;;5117505;28;20428;-56
2022/04/13 03:51:01;;;;;;;1.30;0.90;;;12.30;99.90;;;;;;5117139;28;20507;-57
2022/04/13 03:53:28;;;;;;;1.40;0.90;;;12.20;99.90;;;;;;5117438;28;20463;-57
2022/04/13 03:55:55;;;;;;;1.80;0.90;;;12.20;99.90;;;;;;5117143;28;20814;-57
2022/04/13 03:58:23;;;;;;;1.52;0.73;;;12.10;99.90;;;;;;5116758;28;20887;-56
2022/04/13 04:00:50;;;;;;;1.20;0.90;;;12.10;99.90;;;;;;5116669;28;20511;-57
2022/04/13 04:03:17;;;;;;;1.20;0.80;;;12.00;99.90;;;;;;5117219;28;20416;-57
2022/04/13 04:05:43;;;;;;;1.65;0.90;;;12.00;1.00;;;;;;5116812;28;20582;-59
2022/04/13 04:08:10;;;;;;;1.33;0.80;;;12.00;1.00;;;;;;5116796;28;20473;-57
2022/04/13 04:10:37;;;;;;;1.83;1.00;;;12.00;1.00;;;;;;5116489;28;20496;-57
2022/04/13 04:13:04;;;;;;;1.80;0.90;;;11.90;1.00;;;;;;5117109;28;20440;-58
2022/04/13 04:15:33;;;;;;;1.30;0.80;;;11.90;1.00;;;;;;5117042;28;20689;-55
2022/04/13 04:17:59;;;;;;;1.48;0.80;;;11.90;1.00;;;;;;5116325;28;20455;-57
2022/04/13 04:20:26;;;;;;;1.40;0.80;;;11.90;1.00;;;;;;5116899;28;20499;-57
2022/04/13 04:22:55;;;;;;;1.60;0.80;;;11.90;1.00;;;;;;5117071;28;20548;-56
2022/04/13 04:25:22;;;;;;;1.10;0.70;;;11.90;1.00;;;;;;5116759;28;20697;-56
2022/04/13 04:27:48;;;;;;;1.40;0.90;;;11.80;1.00;;;;;;5116161;28;20530;-57
2022/04/13 04:30:15;;;;;;;2.10;1.20;;;11.80;1.00;;;;;;5116094;28;20503;-57
2022/04/13 04:32:44;;;;;;;1.40;0.90;;;11.80;1.00;;;;;;5115614;28;20463;-58
2022/04/13 04:35:11;;;;;;;1.50;0.90;;;11.80;1.00;;;;;;5115085;28;20966;-57
2022/04/13 04:37:38;;;;;;;1.20;0.80;;;11.80;1.00;;;;;;5115606;28;20796;-58
2022/04/13 04:40:06;;;;;;;2.45;0.90;;;11.70;1.00;;;;;;5114282;28;20423;-58
2022/04/13 04:42:43;;;;;;;1.40;0.88;;;11.80;1.00;;;;;;5115029;28;20429;-58
2022/04/13 04:45:11;;;;;;;1.20;0.90;;;11.80;1.00;;;;;;5114010;28;20863;-59
2022/04/13 04:47:38;;;;;;;1.20;0.80;;;12.00;1.00;;;;;;5114541;28;20869;-59
2022/04/13 04:50:08;;;;;;;1.50;0.90;;;12.00;1.00;;;;;;5105898;28;20546;-59
2022/04/13 04:52:35;;;;;;;1.40;1.00;;;12.10;99.90;;;;;;5101623;28;20456;-59
2022/04/13 04:55:02;;;;;;;1.80;1.00;;;12.10;1.00;;;;;;5099787;28;20434;-59
2022/04/13 04:57:29;;;;;;;1.70;0.90;;;12.10;99.90;;;;;;5114643;28;20907;-59
2022/04/13 04:59:56;;;;;;;1.90;1.00;;;12.10;1.00;;;;;;5115599;28;20419;-59
2022/04/13 05:02:23;;;;;;;1.60;1.00;;;12.20;99.90;;;;;;5112874;28;20455;-59
2022/04/13 05:04:49;;;;;;;1.15;0.90;;;12.30;99.90;;;;;;5111488;28;20495;-58
2022/04/13 05:07:18;;;;;;;2.10;0.90;;;12.40;1.00;;;;;;5111337;28;20421;-59
2022/04/13 05:09:45;;;;;;;2.97;1.10;;;12.50;1.00;;;;;;5113890;28;20488;-54
2022/04/13 05:12:12;;;;;;;1.80;0.90;;;12.50;1.00;;;;;;5112830;28;20432;-57
2022/04/13 05:14:39;;;;;;;3.40;1.00;;;12.60;99.90;;;;;;5114073;28;20503;-57
2022/04/13 05:17:05;;;;;;;1.70;1.00;;;12.60;1.00;;;;;;5112279;28;20518;-58
2022/04/13 05:19:34;;;;;;;1.93;1.10;;;12.70;1.00;;;;;;5113836;28;20573;-58
2022/04/13 05:22:01;;;;;;;1.50;1.10;;;12.70;1.00;;;;;;5105609;28;20746;-58
2022/04/13 05:24:29;;;;;;;2.20;0.90;;;12.70;1.00;;;;;;5108475;28;20503;-56
2022/04/13 05:26:56;;;;;;;2.20;1.10;;;12.80;1.00;;;;;;5109592;28;20431;-58
2022/04/13 05:29:22;;;;;;;2.40;1.10;;;12.90;99.90;;;;;;5111990;28;20428;-58
2022/04/13 05:31:49;;;;;;;1.60;0.95;;;13.00;77.90;;;;;;5113887;28;20518;-58
2022/04/13 05:34:16;;;;;;;4.05;1.17;;;13.00;1.00;;;;;;5108488;28;20495;-57
2022/04/13 05:36:43;;;;;;;2.80;1.00;;;13.10;99.90;;;;;;5091347;28;20426;-58
2022/04/13 05:39:10;;;;;;;1.50;1.10;;;13.10;99.90;;;;;;5093969;28;20418;-57
2022/04/13 05:41:39;;;;;;;2.53;1.13;;;13.20;99.90;;;;;;5113095;28;20519;-58
2022/04/13 05:44:06;;;;;;;2.00;1.10;;;13.20;72.10;;;;;;5110523;28;20814;-58
2022/04/13 05:46:34;;;;;;;1.70;1.20;;;13.20;1.00;;;;;;5094709;28;20428;-58
2022/04/13 05:49:00;;;;;;;1.37;0.93;;;13.00;1.00;;;;;;5110863;28;20424;-58
2022/04/13 05:51:28;;;;;;;1.95;1.13;;;13.00;1.00;;;;;;5103281;28;20434;-58
2022/04/13 05:53:55;;;;;;;1.60;1.10;;;13.10;1.00;;;;;;5110145;28;20534;-59
2022/04/13 05:56:21;;;;;;;1.50;1.00;;;13.20;99.90;;;;;;5108815;28;20432;-58
2022/04/13 05:58:50;;;;;;;1.20;0.90;;;13.10;1.00;;;;;;5112020;28;20412;-58
2022/04/13 06:01:16;;;;;;;2.00;1.02;;;13.10;1.00;;;;;;5110189;28;20432;-58
2022/04/13 06:03:43;;;;;;;3.17;1.30;;;13.20;1.00;;;;;;5098498;28;20509;-58
2022/04/13 06:06:11;;;;;;;2.00;1.00;;;13.30;1.00;;;;;;5094612;28;20528;-58
2022/04/13 06:08:37;;;;;;;7.50;1.30;;;13.40;99.90;;;;;;5094534;28;20481;-58
2022/04/13 06:11:04;;;;;;;3.43;1.20;;;13.40;26.00;;;;;;5105556;28;21019;-58
2022/04/13 06:13:33;;;;;;;2.40;1.70;;;13.20;1.00;;;;;;5113948;28;20824;-57
2022/04/13 06:16:01;;;;;;;2.40;1.10;;;13.10;1.00;;;;;;5114688;28;20421;-59
2022/04/13 06:18:28;;;;;;;2.65;1.50;;;13.00;1.00;;;;;;5113743;28;20444;-58
2022/04/13 06:20:55;;;;;;;2.33;1.20;;;13.10;1.00;;;;;;5113277;28;20863;-58
2022/04/13 06:23:22;;;;;;;2.85;1.30;;;13.10;99.90;;;;;;5106083;28;20719;-58
2022/04/13 06:25:49;;;;;;;3.40;1.10;;;13.20;1.00;;;;;;5110796;28;20481;-56
2022/04/13 06:28:16;;;;;;;1.80;1.38;;;13.40;97.60;;;;;;5111226;28;20428;-57
2022/04/13 06:30:44;;;;;;;1.80;1.10;;;13.50;1.00;;;;;;5113237;28;20418;-57
2022/04/13 06:33:12;;;;;;;4.20;1.30;;;13.70;99.90;;;;;;5114760;28;20418;-58
2022/04/13 06:35:39;;;;;;;2.55;1.15;;;14.00;1.00;;;;;;5113673;28;20587;-57
2022/04/13 06:38:06;;;;;;;3.60;1.20;;;14.10;99.90;;;;;;5115801;28;20779;-60
2022/04/13 06:40:33;;;;;;;1.70;1.25;;;14.00;99.90;;;;;;5113687;28;20507;-58
2022/04/13 06:43:00;;;;;;;2.58;1.02;;;14.00;99.90;;;;;;5115348;28;20713;-58
2022/04/13 06:45:27;;;;;;;2.00;1.20;;;14.10;99.90;;;;;;5114038;28;20938;-58
2022/04/13 06:47:54;;;;;;;2.30;1.20;;;14.30;99.90;;;;;;5113990;28;20938;-59
2022/04/13 06:50:22;;;;;;;2.90;1.30;;;14.40;47.70;;;;;;5113901;28;20660;-59
2022/04/13 06:52:49;;;;;;;3.80;1.20;;;14.70;1.00;;;;;;5112170;28;20523;-59
2022/04/13 06:55:16;;;;;;;3.50;1.30;;;14.70;1.00;;;;;;5113275;28;20507;-58
2022/04/13 06:57:43;;;;;;;1.73;1.20;;;14.80;1.00;;;;;;5112398;28;20424;-59
2022/04/13 07:00:12;;;;;;;2.88;1.50;;;14.80;1.00;;;;;;5109371;28;20670;-59
2022/04/13 07:02:39;;;;;;;1.80;1.40;;;14.90;1.00;;;;;;5109960;28;20508;-59
2022/04/13 07:05:07;;;;;;;2.70;1.45;;;14.90;1.00;;;;;;5111666;28;20553;-59
2022/04/13 07:07:36;;;;;;;2.97;1.40;;;14.90;1.00;;;;;;5107425;28;20477;-59
2022/04/13 07:10:04;;;;;;;2.70;1.25;;;14.80;99.90;;;;;;5109317;28;20431;-58
2022/04/13 07:12:35;;;;;;;3.90;2.25;;;14.90;1.00;;;;;;5113901;28;20473;-59
2022/04/13 07:15:02;;;;;;;2.50;1.40;;;15.00;1.00;;;;;;5115018;28;20428;-59
2022/04/13 07:17:29;;;;;;;3.58;1.70;;;15.20;99.90;;;;;;5108328;28;20460;-59
2022/04/13 07:19:56;;;;;;;2.22;1.30;;;15.30;99.90;;;;;;5109434;28;20926;-59
2022/04/13 07:22:23;;;;;;;2.40;1.10;;;15.30;99.90;;;;;;5112111;28;20507;-59
2022/04/13 07:24:52;;;;;;;3.47;1.10;;;15.30;99.90;;;;;;5111694;28;20874;-59
2022/04/13 07:27:19;;;;;;;4.35;1.60;;;15.40;99.90;;;;;;5110704;28;20519;-58
2022/04/13 07:29:46;;;;;;;6.03;1.50;;;15.50;99.90;;;;;;5112332;28;20463;-59
2022/04/13 07:32:13;;;;;;;4.72;1.40;;;15.70;99.90;;;;;;5109629;28;20910;-59
2022/04/13 07:34:39;;;;;;;4.13;2.10;;;15.90;99.90;;;;;;5113447;28;20416;-59
2022/04/13 07:37:06;;;;;;;3.60;1.95;;;16.00;99.90;;;;;;5112115;28;20444;-59
2022/04/13 07:39:34;;;;;;;3.95;1.60;;;16.00;99.90;;;;;;5112585;28;20707;-59
2022/04/13 07:42:02;;;;;;;3.08;1.20;;;15.90;99.90;;;;;;5112001;28;20534;-59
2022/04/13 07:44:29;;;;;;;2.60;1.40;;;15.80;99.90;;;;;;5109635;28;20428;-59
2022/04/13 07:46:56;;;;;;;2.60;1.77;;;15.90;99.90;;;;;;5109952;28;20522;-57
2022/04/13 07:49:23;;;;;;;3.30;1.80;;;16.00;99.90;;;;;;5112475;28;20538;-58
2022/04/13 07:51:50;;;;;;;1.90;1.40;;;16.10;91.20;;;;;;5111443;28;20511;-58
2022/04/13 07:54:17;;;;;;;4.40;1.60;;;16.20;69.90;;;;;;5105639;28;20851;-60
2022/04/13 07:56:44;;;;;;;3.38;1.75;;;16.30;45.10;;;;;;5113314;28;20919;-59
2022/04/13 07:59:12;;;;;;;5.20;2.00;;;16.40;33.80;;;;;;5111393;28;20911;-60
2022/04/13 08:01:39;;;;;;;4.82;1.60;;;16.60;1.00;;;;;;5113439;28;20428;-59
2022/04/13 08:04:06;;;;;;;2.88;1.30;;;16.70;1.00;;;;;;5113370;28;20502;-59
2022/04/13 08:06:33;;;;;;;3.13;2.10;;;16.80;1.00;;;;;;5113025;28;20439;-59
2022/04/13 08:09:00;;;;;;;2.50;1.30;;;16.90;1.00;;;;;;5113655;28;20432;-59
2022/04/13 08:11:27;;;;;;;2.47;1.30;;;17.10;1.00;;;;;;5111394;28;20872;-59
2022/04/13 08:13:54;;;;;;;4.40;1.60;;;17.20;1.00;;;;;;5112424;28;20727;-59
2022/04/13 08:16:22;;;;;;;3.50;1.50;;;17.20;1.00;;;;;;5110050;28;20522;-59
2022/04/13 08:18:49;;;;;;;3.50;1.40;;;17.30;1.00;;;;;;5112724;28;20466;-59
2022/04/13 08:21:16;;;;;;;2.50;1.20;;;17.40;1.00;;;;;;5114439;28;20859;-59
2022/04/13 08:23:43;;;;;;;3.40;1.20;;;17.50;1.00;;;;;;5113716;28;20514;-59
2022/04/13 08:26:10;;;;;;;2.75;1.10;;;17.80;1.00;;;;;;5112724;28;20431;-59
2022/04/13 08:28:37;;;;;;;2.10;1.20;;;18.00;1.00;;;;;;5109515;28;20467;-59
2022/04/13 08:31:04;;;;;;;2.08;1.23;;;18.10;1.00;;;;;;5111709;28;20552;-59
2022/04/13 08:33:33;;;;;;;2.53;1.10;;;18.20;1.00;;;;;;5111927;28;20484;-59
2022/04/13 08:36:00;;;;;;;2.60;1.10;;;18.40;1.00;;;;;;5112022;28;20455;-58
2022/04/13 08:38:27;;;;;;;2.70;1.80;;;18.40;1.00;;;;;;5104549;28;20420;-59
2022/04/13 08:40:58;;;;;;;2.40;1.10;;;18.50;1.00;;;;;;5109982;28;20467;-58
2022/04/13 08:43:32;;;;;;;2.10;1.00;;;18.50;1.00;;;;;;5110457;28;20451;-58
2022/04/13 08:46:04;;;;;;;3.17;1.10;;;18.60;1.00;;;;;;5109939;28;20808;-59
2022/04/13 08:48:32;;;;;;;3.17;1.00;;;18.70;1.00;;;;;;5109104;28;20425;-59
2022/04/13 08:51:02;;;;;;;3.55;1.00;;;18.90;1.00;;;;;;5100147;28;20459;-59
2022/04/13 08:53:31;;;;;;;1.90;0.90;;;19.00;1.00;;;;;;5108316;28;20480;-59
2022/04/13 08:55:59;;;;;;;2.50;1.00;;;19.10;1.00;;;;;;5111711;28;20462;-60
2022/04/13 08:58:35;;;;;;;2.80;0.90;;;19.10;1.00;;;;;;5110120;28;20519;-59
2022/04/13 09:01:10;;;;;;;2.10;1.40;;;19.10;1.00;;;;;;5110689;28;20529;-59
2022/04/13 09:03:44;;;;;;;2.70;1.40;;;19.30;1.00;;;;;;5110177;28;20434;-59
2022/04/13 09:06:12;;;;;;;3.70;1.63;;;19.40;1.00;;;;;;5112497;28;20799;-59
2022/04/13 09:08:46;;;;;;;2.80;1.00;;;19.40;1.00;;;;;;5112022;28;20527;-59
2022/04/13 09:11:14;;;;;;;2.30;0.90;;;19.50;1.00;;;;;;5111744;28;20498;-61
2022/04/13 09:13:43;;;;;;;1.70;0.98;;;19.60;1.00;;;;;;5107854;28;20435;-60
2022/04/13 09:16:11;;;;;;;2.75;0.75;;;19.80;1.00;;;;;;5111425;28;20895;-59
2022/04/13 09:18:38;;;;;;;1.10;0.80;;;19.80;1.00;;;;;;5110879;28;20591;-59
2022/04/13 09:21:06;;;;;;;1.40;0.73;;;19.90;1.00;;;;;;5114000;28;20426;-57
2022/04/13 09:23:33;;;;;;;1.70;0.80;;;20.00;1.00;;;;;;5111962;28;20535;-58
2022/04/13 09:26:01;;;;;;;2.22;0.77;;;20.20;1.00;;;;;;5111762;28;20444;-58
2022/04/13 09:28:28;;;;;;;7.03;0.90;;;20.30;1.00;;;;;;5112100;28;20967;-58
2022/04/13 09:30:55;;;;;;;1.40;0.80;;;20.30;1.00;;;;;;5113543;28;20507;-58
2022/04/13 09:33:23;;;;;;;1.27;0.80;;;20.50;1.00;;;;;;5112818;28;20542;-58
2022/04/13 09:35:50;;;;;;;1.95;0.80;;;20.70;1.00;;;;;;5112527;28;20424;-58
2022/04/13 09:38:20;;;;;;;12.67;1.53;;;20.70;1.00;;;;;;5110289;28;20420;-59
2022/04/13 09:40:47;;;;;;;3.80;0.80;;;20.80;1.00;;;;;;5106857;28;20768;-59
2022/04/13 09:43:15;;;;;;;3.00;0.80;;;20.90;1.00;;;;;;5113168;28;20428;-59
2022/04/13 09:45:44;;;;;;;1.10;0.75;;;20.70;1.00;;;;;;5113787;28;20469;-59
2022/04/13 09:48:13;;;;;;;2.10;0.70;;;20.70;1.00;;;;;;5110437;28;20431;-59
2022/04/13 09:50:40;;;;;;;1.40;0.80;;;20.70;1.00;;;;;;5109759;28;20439;-60
2022/04/13 09:53:09;;;;;;;3.47;1.80;;;20.80;1.00;;;;;;5111560;28;20713;-59
2022/04/13 09:55:40;;;;;;;1.13;0.70;;;20.90;1.00;;;;;;5111729;28;20455;-60
2022/04/13 09:58:09;;;;;;;2.60;0.80;;;21.10;1.00;;;;;;5112270;28;20954;-60
2022/04/13 10:00:36;;;;;;;1.95;0.75;;;21.30;1.00;;;;;;5111072;28;20974;-59
2022/04/13 10:03:12;;;;;;;1.90;0.70;;;21.40;1.00;;;;;;5111044;28;20837;-59
2022/04/13 10:05:43;;;;;;;1.73;0.80;;;21.50;1.00;;;;;;5112317;28;20464;-61
2022/04/13 10:08:11;;;;;;;1.88;0.80;;;21.70;1.00;;;;;;5111249;28;20438;-57
2022/04/13 10:10:43;;;;;;;2.00;0.80;;;21.70;1.00;;;;;;5106422;28;20527;-58
2022/04/13 10:13:11;;;;;;;1.10;0.60;;;22.00;1.00;;;;;;5111493;28;20902;-57
2022/04/13 10:15:38;;;;;;;2.10;0.60;;;22.30;1.00;;;;;;5097629;28;20459;-56
2022/04/13 10:18:06;;;;;;;1.40;0.60;;;22.40;1.00;;;;;;5108770;28;20522;-56
2022/04/13 10:20:43;;;;;;;0.63;0.50;;;22.50;1.00;;;;;;5109781;28;20567;-57
2022/04/13 10:23:10;;;;;;;1.00;0.50;;;22.50;1.00;;;;;;5100977;28;20453;-57
2022/04/13 10:25:37;;;;;;;0.80;0.57;;;22.60;1.00;;;;;;5111534;28;20455;-57
2022/04/13 10:28:06;;;;;;;0.60;0.40;;;22.60;1.00;;;;;;5107961;28;20547;-58
2022/04/13 10:30:34;;;;;;;0.60;0.40;;;22.80;1.00;;;;;;5112369;28;20567;-57
2022/04/13 10:33:03;;;;;;;1.33;0.50;;;22.80;1.00;;;;;;5108641;28;20748;-58
2022/04/13 10:35:32;;;;;;;0.60;0.40;;;22.80;1.00;;;;;;5110633;28;20508;-57
2022/04/13 10:37:59;;;;;;;0.77;0.47;;;22.90;1.00;;;;;;5110108;28;20551;-57
2022/04/13 10:40:29;;;;;;;0.90;0.50;;;23.00;1.00;;;;;;5110762;28;20919;-58
2022/04/13 10:43:00;;;;;;;2.03;0.30;;;22.90;1.00;;;;;;5109206;28;20453;-56
2022/04/13 10:45:29;;;;;;;0.90;0.50;;;23.10;1.00;;;;;;5099437;28;20930;-56
2022/04/13 10:48:00;;;;;;;2.37;0.57;;;23.30;1.00;;;;;;5109214;28;20451;-58
2022/04/13 10:50:41;;;;;;;1.53;0.40;;;23.60;1.00;;;;;;5113577;28;20482;-58
2022/04/13 10:53:19;;;;;;;0.90;0.50;;;23.90;1.00;;;;;;5113057;28;20559;-58
2022/04/13 10:55:52;;;;;;;1.27;0.60;;;24.00;1.00;;;;;;5113943;28;20474;-58
2022/04/13 10:58:24;;;;;;;1.40;0.50;;;24.10;1.00;;;;;;5115332;28;20548;-58
2022/04/13 11:00:58;;;;;;;0.80;0.60;;;24.20;1.00;;;;;;5115035;28;20539;-58
2022/04/13 11:03:30;;;;;;;0.90;0.50;;;24.30;1.00;;;;;;5114138;28;20551;-58
2022/04/13 11:05:58;;;;;;;1.50;0.50;;;24.20;1.00;;;;;;5113355;28;20444;-58
2022/04/13 11:08:33;;;;;;;0.87;0.50;;;24.30;1.00;;;;;;5113596;28;20505;-58
2022/04/13 11:11:00;;;;;;;1.70;0.60;;;24.50;1.00;;;;;;5111981;28;20527;-58
2022/04/13 11:13:32;;;;;;;2.27;0.50;;;24.70;1.00;;;;;;5114559;28;20867;-58
2022/04/13 11:16:15;;;;;;;1.70;0.50;;;24.60;1.00;;;;;;5115080;28;20448;-58
2022/04/13 11:18:42;;;;;;;2.23;0.50;;;24.80;1.00;;;;;;5102842;28;20887;-58
2022/04/13 11:21:10;;;;;;;1.47;0.60;;;25.10;1.00;;;;;;5114064;28;20448;-58
2022/04/13 11:23:53;;;;;;;1.50;0.50;;;25.20;1.00;;;;;;5113627;28;20951;-58
2022/04/13 11:26:28;;;;;;;0.77;0.60;;;25.20;1.00;;;;;;5109169;28;20441;-58
2022/04/13 11:29:18;;;;;;;0.70;0.50;;;25.10;1.00;;;;;;5108121;28;20432;-58
2022/04/13 11:32:10;;;;;;;0.87;0.43;;;25.30;1.00;;;;;;5093703;28;20453;-58
2022/04/13 11:34:40;;;;;;;0.60;0.40;;;25.40;1.00;;;;;;5111952;28;20449;-58
2022/04/13 11:37:08;;;;;;;1.67;0.80;;;25.40;1.00;;;;;;5115259;28;20483;-58
2022/04/13 11:39:46;;;;;;;0.80;0.50;;;25.30;1.00;;;;;;5112902;28;20812;-58
2022/04/13 11:42:56;;;;;;;1.00;0.50;;;25.20;1.00;;;;;;5111624;28;20480;-58
2022/04/13 11:45:24;;;;;;;1.77;0.40;;;25.20;1.00;;;;;;5112482;28;20627;-58
2022/04/13 11:47:58;;;;;;;2.20;0.57;;;25.30;1.00;;;;;;5114773;28;20456;-58
2022/04/13 11:50:26;;;;;;;1.47;0.80;;;25.20;1.00;;;;;;5111514;28;20471;-57
2022/04/13 11:52:55;;;;;;;1.20;0.73;;;25.30;1.00;;;;;;5110921;28;21092;-58
2022/04/13 11:55:23;;;;;;;1.73;0.60;;;25.40;1.00;;;;;;5100581;28;20446;-58
2022/04/13 11:58:20;;;;;;;1.10;0.40;;;25.50;1.00;;;;;;5109825;28;20825;-58
2022/04/13 12:00:55;;;;;;;3.00;0.53;;;25.70;1.00;;;;;;5103133;28;20888;-58
2022/04/13 12:03:26;;;;;;;0.80;0.50;;;25.70;1.00;;;;;;5100649;28;20555;-58
2022/04/13 12:05:55;;;;;;;0.67;0.50;;;25.70;1.00;;;;;;5102367;28;20483;-58
2022/04/13 12:08:25;;;;;;;0.80;0.37;;;25.70;1.00;;;;;;5097674;28;20460;-57
2022/04/13 12:10:56;;;;;;;1.30;0.50;;;25.60;1.00;;;;;;5108349;28;20525;-57
2022/04/13 12:13:24;;;;;;;0.60;0.40;;;25.80;1.00;;;;;;5109967;28;20555;-58
2022/04/13 12:15:52;;;;;;;0.60;0.40;;;26.10;1.00;;;;;;5114986;28;21163;-60
2022/04/13 12:18:20;;;;;;;1.20;0.50;;;26.20;1.00;;;;;;5115615;28;20548;-61
2022/04/13 12:20:49;;;;;;;0.80;0.50;;;26.10;1.00;;;;;;5113726;28;20476;-60
2022/04/13 12:23:22;;;;;;;2.03;0.40;;;25.60;1.00;;;;;;5115131;28;20956;-60
2022/04/13 12:25:50;;;;;;;0.80;0.50;;;25.30;1.00;;;;;;5113776;28;20484;-60
2022/04/13 12:28:19;;;;;;;0.70;0.40;;;24.80;1.00;;;;;;5114106;28;20444;-61
2022/04/13 12:30:55;;;;;;;1.13;0.50;;;24.90;1.00;;;;;;5112776;28;20469;-60
2022/04/13 12:33:23;;;;;;;0.80;0.50;;;25.20;1.00;;;;;;5112743;28;20456;-61
2022/04/13 12:35:58;;;;;;;1.00;0.57;;;25.50;1.00;;;;;;5112062;28;20449;-61
2022/04/13 12:38:27;;;;;;;1.40;0.43;;;25.90;1.00;;;;;;5110020;28;20486;-60
2022/04/13 12:41:15;;;;;;;0.60;0.40;;;25.90;1.00;;;;;;5105612;28;20440;-62
2022/04/13 12:43:43;;;;;;;6.20;3.60;;;25.80;1.00;;;;;;5094154;28;20922;-62
2022/04/13 12:46:15;;;;;;;0.73;0.40;;;26.00;1.00;;;;;;5110881;28;20563;-62
2022/04/13 12:48:44;;;;;;;1.83;0.50;;;26.00;1.00;;;;;;5101996;28;20500;-62
2022/04/13 12:51:15;;;;;;;0.90;0.50;;;26.10;1.00;;;;;;5107610;28;20478;-62
2022/04/13 12:53:53;;;;;;;0.70;0.40;;;26.20;1.00;;;;;;5112483;28;20457;-62
2022/04/13 12:56:21;;;;;;;0.70;0.40;;;26.50;1.00;;;;;;5095314;28;20445;-61
2022/04/13 12:58:48;;;;;;;1.03;0.40;;;26.50;1.00;;;;;;5094091;28;20454;-61
2022/04/13 13:01:32;;;;;;;0.53;0.40;;;26.30;1.00;;;;;;5100324;28;20440;-63